createdAt,value
2023-01-22T00:00:18.431Z,3.00
2023-01-22T00:02:48.944Z,3.00
2023-01-22T00:05:16.989Z,3.30
2023-01-22T00:07:45.416Z,3.50
2023-01-22T00:10:18.070Z,3.60
2023-01-22T00:12:52.377Z,3.80
2023-01-22T00:15:23.447Z,4.10
2023-01-22T00:17:51.331Z,4.10
2023-01-22T00:20:28.278Z,4.00
2023-01-22T00:22:56.141Z,4.10
2023-01-22T00:25:37.615Z,4.00
2023-01-22T00:28:11.817Z,3.80
2023-01-22T00:30:39.826Z,3.70
2023-01-22T00:33:07.724Z,3.70
2023-01-22T00:35:36.073Z,3.50
2023-01-22T00:38:04.896Z,3.50
2023-01-22T00:40:34.856Z,3.60
2023-01-22T00:43:04.086Z,3.60
2023-01-22T00:45:32.073Z,3.60
2023-01-22T00:48:02.933Z,3.50
2023-01-22T00:50:30.876Z,3.50
2023-01-22T00:53:03.812Z,3.70
2023-01-22T00:55:32.054Z,3.60
2023-01-22T00:58:06.951Z,3.70
2023-01-22T01:00:37.874Z,3.60
2023-01-22T01:03:23.206Z,3.80
2023-01-22T01:05:51.082Z,3.90
2023-01-22T01:08:19.025Z,3.80
2023-01-22T01:10:49.956Z,3.90
2023-01-22T01:13:19.169Z,4.00
2023-01-22T01:15:50.592Z,4.00
2023-01-22T01:18:18.508Z,3.80
2023-01-22T01:20:55.010Z,4.00
2023-01-22T01:23:23.020Z,3.90
2023-01-22T01:25:53.942Z,3.60
2023-01-22T01:28:26.491Z,3.50
2023-01-22T01:30:54.429Z,3.50
2023-01-22T01:33:22.672Z,3.30
2023-01-22T01:35:50.534Z,3.30
2023-01-22T01:38:18.393Z,3.20
2023-01-22T01:40:46.315Z,3.10
2023-01-22T01:43:27.687Z,2.90
2023-01-22T01:45:56.629Z,3.00
2023-01-22T01:48:29.426Z,3.10
2023-01-22T01:51:02.476Z,3.20
2023-01-22T01:53:34.036Z,3.30
2023-01-22T01:56:06.166Z,3.70
2023-01-22T01:58:39.763Z,3.90
2023-01-22T02:01:11.802Z,3.90
2023-01-22T02:03:45.268Z,4.10
2023-01-22T02:06:14.721Z,4.10
2023-01-22T02:08:48.491Z,3.70
2023-01-22T02:11:20.975Z,3.50
2023-01-22T02:13:58.751Z,3.70
2023-01-22T02:16:26.729Z,3.50
2023-01-22T02:18:54.633Z,3.30
2023-01-22T02:21:35.497Z,3.30
2023-01-22T02:24:04.479Z,3.20
2023-01-22T02:26:35.568Z,3.30
2023-01-22T02:29:07.914Z,3.20
2023-01-22T02:31:40.755Z,3.00
2023-01-22T02:34:10.260Z,3.00
2023-01-22T02:36:40.773Z,3.10
2023-01-22T02:39:08.967Z,3.10
2023-01-22T02:41:46.370Z,3.20
2023-01-22T02:44:17.235Z,3.20
2023-01-22T02:46:45.125Z,3.10
2023-01-22T02:49:15.898Z,3.00
2023-01-22T02:51:46.895Z,2.90
2023-01-22T02:54:14.755Z,3.00
2023-01-22T02:56:54.060Z,3.20
2023-01-22T02:59:21.948Z,3.30
2023-01-22T03:01:49.913Z,3.60
2023-01-22T03:04:17.827Z,3.40
2023-01-22T03:06:49.567Z,3.40
2023-01-22T03:09:21.130Z,3.70
2023-01-22T03:11:49.043Z,3.50
2023-01-22T03:14:37.096Z,3.50
2023-01-22T03:17:22.583Z,3.50
2023-01-22T03:20:10.318Z,3.40
2023-01-22T03:22:39.575Z,3.20
2023-01-22T03:25:13.001Z,3.10
2023-01-22T03:28:00.919Z,3.00
2023-01-22T03:30:28.826Z,2.90
2023-01-22T03:32:56.679Z,2.90
2023-01-22T03:35:25.164Z,3.00
2023-01-22T03:38:09.191Z,3.10
2023-01-22T03:40:39.868Z,3.00
2023-01-22T03:43:07.774Z,3.00
2023-01-22T03:45:35.911Z,3.20
2023-01-22T03:48:06.465Z,3.10
2023-01-22T03:50:36.252Z,3.10
2023-01-22T03:53:08.024Z,3.30
2023-01-22T03:55:38.906Z,3.50
2023-01-22T03:58:06.795Z,3.50
2023-01-22T04:00:34.623Z,3.50
2023-01-22T04:03:23.551Z,3.60
2023-01-22T04:06:02.063Z,3.70
2023-01-22T04:08:38.344Z,3.60
2023-01-22T04:11:06.623Z,3.70
2023-01-22T04:13:39.020Z,3.80
2023-01-22T04:16:11.173Z,3.60
2023-01-22T04:18:39.378Z,3.70
2023-01-22T04:21:07.284Z,3.80
2023-01-22T04:23:39.316Z,4.20
2023-01-22T04:26:11.095Z,4.20
2023-01-22T04:28:38.952Z,4.20
2023-01-22T04:31:08.626Z,4.20
2023-01-22T04:33:42.804Z,4.00
2023-01-22T04:36:13.477Z,3.90
2023-01-22T04:38:45.780Z,3.70
2023-01-22T04:41:16.508Z,3.80
2023-01-22T04:43:47.354Z,4.00
2023-01-22T04:46:17.479Z,4.10
2023-01-22T04:48:46.072Z,4.40
2023-01-22T04:51:28.941Z,4.60
2023-01-22T04:53:58.170Z,4.90
2023-01-22T04:56:28.844Z,4.70
2023-01-22T04:58:59.037Z,4.60
2023-01-22T05:01:36.647Z,4.60
2023-01-22T05:04:04.591Z,4.50
2023-01-22T05:06:35.631Z,4.70
2023-01-22T05:09:05.119Z,4.50
2023-01-22T05:11:35.290Z,4.30
2023-01-22T05:14:03.177Z,4.30
2023-01-22T05:16:31.071Z,4.20
2023-01-22T05:19:05.408Z,4.40
2023-01-22T05:21:33.295Z,4.70
2023-01-22T05:24:11.911Z,4.60
2023-01-22T05:26:42.759Z,4.40
2023-01-22T05:29:13.539Z,4.80
2023-01-22T05:31:44.259Z,4.70
2023-01-22T05:34:12.151Z,4.60
2023-01-22T05:36:51.913Z,4.50
2023-01-22T05:39:24.220Z,4.30
2023-01-22T05:41:53.927Z,4.40
2023-01-22T05:44:21.799Z,4.20
2023-01-22T05:46:52.253Z,3.90
2023-01-22T05:49:22.965Z,3.80
2023-01-22T05:51:50.885Z,3.70
2023-01-22T05:54:18.913Z,3.80
2023-01-22T05:56:48.134Z,3.70
2023-01-22T05:59:19.016Z,4.00
2023-01-22T06:01:46.905Z,4.30
2023-01-22T06:04:14.818Z,4.50
2023-01-22T06:06:42.709Z,4.10
2023-01-22T06:09:16.710Z,3.80
2023-01-22T06:11:48.706Z,3.90
2023-01-22T06:14:16.747Z,3.90
2023-01-22T06:16:44.600Z,4.30
2023-01-22T06:19:15.517Z,5.10
2023-01-22T06:21:50.925Z,5.30
2023-01-22T06:24:24.706Z,5.50
2023-01-22T06:26:57.593Z,5.30
2023-01-22T06:29:25.476Z,5.20
2023-01-22T06:31:53.407Z,5.20
2023-01-22T06:34:24.773Z,5.10
2023-01-22T06:36:52.683Z,5.00
2023-01-22T06:39:29.499Z,4.80
2023-01-22T06:41:58.837Z,4.90
2023-01-22T06:44:26.707Z,5.10
2023-01-22T06:46:54.576Z,4.80
2023-01-22T06:49:25.625Z,5.00
2023-01-22T06:51:53.450Z,5.30
2023-01-22T06:54:21.323Z,5.20
2023-01-22T06:56:49.233Z,5.20
2023-01-22T06:59:18.543Z,4.80
2023-01-22T07:01:46.473Z,4.50
2023-01-22T07:04:14.361Z,4.70
2023-01-22T07:06:59.353Z,4.10
2023-01-22T07:09:27.314Z,4.00
2023-01-22T07:12:02.478Z,4.10
2023-01-22T07:14:37.376Z,3.90
2023-01-22T07:17:11.433Z,3.70
2023-01-22T07:19:39.354Z,3.60
2023-01-22T07:22:16.728Z,4.00
2023-01-22T07:24:47.452Z,3.80
2023-01-22T07:27:29.209Z,3.60
2023-01-22T07:30:00.800Z,3.50
2023-01-22T07:32:33.849Z,3.50
2023-01-22T07:35:01.717Z,3.50
2023-01-22T07:37:38.922Z,3.40
2023-01-22T07:40:08.192Z,3.40
2023-01-22T07:42:38.569Z,3.30
2023-01-22T07:45:11.793Z,3.20
2023-01-22T07:47:49.786Z,3.20
2023-01-22T07:50:24.179Z,3.00
2023-01-22T07:53:02.370Z,2.80
2023-01-22T07:55:33.690Z,2.80
2023-01-22T07:58:03.586Z,3.00
2023-01-22T08:00:36.588Z,3.00
2023-01-22T08:03:10.342Z,2.90
2023-01-22T08:05:40.292Z,2.80
2023-01-22T08:08:13.920Z,3.10
2023-01-22T08:10:42.058Z,3.00
2023-01-22T08:13:10.129Z,2.90
2023-01-22T08:15:39.413Z,3.00
2023-01-22T08:18:07.797Z,3.60
2023-01-22T08:20:35.696Z,3.70
2023-01-22T08:23:03.547Z,3.50
2023-01-22T08:25:31.481Z,3.40
2023-01-22T08:28:05.796Z,3.40
2023-01-22T08:30:45.201Z,3.40
2023-01-22T08:33:17.958Z,3.30
2023-01-22T08:35:50.081Z,3.10
2023-01-22T08:38:17.972Z,2.90
2023-01-22T08:40:49.835Z,3.20
2023-01-22T08:43:26.658Z,3.50
2023-01-22T08:46:00.638Z,3.70
2023-01-22T08:48:32.948Z,3.80
2023-01-22T08:51:04.033Z,3.90
2023-01-22T08:53:31.933Z,3.90
2023-01-22T08:56:08.037Z,3.90
2023-01-22T08:58:35.918Z,3.90
2023-01-22T09:01:03.986Z,3.70
2023-01-22T09:03:36.106Z,3.40
2023-01-22T09:06:03.988Z,3.50
2023-01-22T09:08:32.632Z,3.50
2023-01-22T09:11:05.548Z,3.20
2023-01-22T09:13:33.729Z,3.30
2023-01-22T09:16:01.663Z,3.20
2023-01-22T09:18:29.522Z,3.20
2023-01-22T09:21:08.469Z,3.30
2023-01-22T09:23:38.500Z,3.20
2023-01-22T09:26:09.508Z,3.20
2023-01-22T09:28:37.452Z,3.00
2023-01-22T09:31:06.016Z,2.90
2023-01-22T09:33:39.706Z,3.00
2023-01-22T09:36:10.535Z,3.10
2023-01-22T09:38:38.423Z,3.30
2023-01-22T09:41:16.774Z,3.20
2023-01-22T09:43:50.557Z,3.10
2023-01-22T09:46:42.432Z,3.20
2023-01-22T09:49:16.129Z,3.30
2023-01-22T09:51:48.052Z,3.20
2023-01-22T09:54:32.899Z,3.10
2023-01-22T09:57:05.045Z,3.10
2023-01-22T09:59:39.319Z,2.90
2023-01-22T10:02:24.078Z,2.80
2023-01-22T10:04:56.735Z,2.90
2023-01-22T10:07:31.946Z,3.10
2023-01-22T10:10:04.591Z,3.30
2023-01-22T10:12:35.254Z,3.30
2023-01-22T10:15:10.569Z,3.40
2023-01-22T10:17:40.234Z,3.60
2023-01-22T10:20:21.124Z,3.50
2023-01-22T10:22:54.792Z,3.50
2023-01-22T10:25:25.422Z,3.50
2023-01-22T10:28:00.209Z,3.60
2023-01-22T10:30:31.259Z,3.70
2023-01-22T10:33:00.778Z,3.70
2023-01-22T10:35:31.771Z,3.70
2023-01-22T10:38:01.612Z,3.70
2023-01-22T10:40:35.802Z,3.50
2023-01-22T10:43:10.453Z,3.30
2023-01-22T10:45:39.036Z,3.30
2023-01-22T10:48:19.409Z,3.40
2023-01-22T10:50:47.642Z,3.50
2023-01-22T10:53:33.243Z,3.40
2023-01-22T10:56:13.016Z,3.30
2023-01-22T10:58:50.602Z,3.50
2023-01-22T11:01:39.392Z,3.60
2023-01-22T11:04:14.338Z,3.60
2023-01-22T11:06:54.788Z,3.60
2023-01-22T11:09:39.254Z,3.70
2023-01-22T11:12:19.268Z,3.70
2023-01-22T11:15:04.720Z,3.60
2023-01-22T11:17:38.852Z,3.60
2023-01-22T11:20:17.979Z,3.50
2023-01-22T11:22:50.991Z,3.60
2023-01-22T11:25:39.862Z,3.60
2023-01-22T11:28:24.756Z,3.60
2023-01-22T11:31:13.615Z,3.60
2023-01-22T11:34:07.781Z,3.50
2023-01-22T11:36:46.352Z,3.60
2023-01-22T11:39:45.487Z,3.60
2023-01-22T11:42:29.511Z,3.60
2023-01-22T11:45:09.425Z,3.50
2023-01-22T11:47:53.741Z,3.40
2023-01-22T11:50:31.950Z,3.50
2023-01-22T11:53:23.339Z,3.70
2023-01-22T11:56:04.683Z,3.80
2023-01-22T11:58:53.854Z,3.60
2023-01-22T12:01:31.381Z,3.40
2023-01-22T12:04:27.411Z,3.30
2023-01-22T12:07:20.987Z,3.50
2023-01-22T12:10:15.011Z,3.60
2023-01-22T12:12:49.060Z,3.60
2023-01-22T12:15:34.770Z,3.80
2023-01-22T12:18:20.920Z,3.80
2023-01-22T12:21:08.427Z,3.80
2023-01-22T12:23:44.902Z,3.70
2023-01-22T12:26:17.373Z,3.90
2023-01-22T12:28:50.344Z,3.90
2023-01-22T12:31:28.638Z,4.10
2023-01-22T12:34:02.971Z,3.90
2023-01-22T12:36:34.824Z,3.80
2023-01-22T12:39:10.745Z,3.70
2023-01-22T12:41:47.046Z,3.80
2023-01-22T12:44:35.461Z,3.60
2023-01-22T12:47:11.764Z,3.60
2023-01-22T12:49:56.848Z,3.60
2023-01-22T12:52:34.331Z,3.70
2023-01-22T12:55:25.244Z,3.80
2023-01-22T12:57:56.314Z,3.80
2023-01-22T13:00:30.273Z,3.90
2023-01-22T13:02:59.715Z,4.00
2023-01-22T13:05:44.676Z,4.00
2023-01-22T13:08:36.682Z,4.00
2023-01-22T13:11:06.905Z,3.90
2023-01-22T13:13:46.536Z,3.70
2023-01-22T13:16:26.917Z,3.70
2023-01-22T13:18:59.852Z,3.80
2023-01-22T13:21:30.134Z,3.60
2023-01-22T13:24:04.227Z,3.50
2023-01-22T13:26:35.242Z,3.70
2023-01-22T13:29:18.715Z,3.80
2023-01-22T13:31:52.688Z,3.90
2023-01-22T13:34:28.015Z,3.60
2023-01-22T13:36:56.889Z,3.60
2023-01-22T13:39:30.526Z,3.40
2023-01-22T13:42:00.540Z,3.40
2023-01-22T13:44:36.675Z,3.40
2023-01-22T13:47:07.712Z,3.60
2023-01-22T13:49:44.561Z,3.80
2023-01-22T13:52:17.545Z,3.90
2023-01-22T13:55:00.162Z,3.90
2023-01-22T13:57:27.969Z,3.80
2023-01-22T14:00:03.594Z,3.90
2023-01-22T14:02:34.553Z,3.80
2023-01-22T14:05:21.808Z,3.70
2023-01-22T14:08:24.941Z,3.50
2023-01-22T14:10:58.261Z,3.60
2023-01-22T14:13:39.425Z,3.80
2023-01-22T14:16:07.987Z,3.90
2023-01-22T14:18:46.684Z,3.80
2023-01-22T14:21:30.785Z,3.80
2023-01-22T14:23:58.747Z,3.90
2023-01-22T14:26:26.817Z,3.90
2023-01-22T14:29:00.535Z,3.80
2023-01-22T14:31:33.687Z,3.80
2023-01-22T14:34:01.775Z,3.80
2023-01-22T14:36:31.483Z,3.80
2023-01-22T14:39:02.372Z,3.80
2023-01-22T14:41:45.517Z,3.80
2023-01-22T14:44:16.159Z,3.90
2023-01-22T14:46:47.147Z,4.00
2023-01-22T14:49:18.255Z,4.00
2023-01-22T14:51:55.148Z,3.90
2023-01-22T14:54:23.135Z,3.80
2023-01-22T14:56:59.468Z,3.70
2023-01-22T14:59:27.354Z,3.70
2023-01-22T15:01:55.261Z,3.60
2023-01-22T15:04:23.157Z,3.80
2023-01-22T15:06:52.392Z,3.70
2023-01-22T15:09:35.589Z,3.70
2023-01-22T15:12:06.831Z,3.70
2023-01-22T15:14:34.737Z,3.90
2023-01-22T15:17:02.644Z,4.20
2023-01-22T15:19:40.918Z,4.20
2023-01-22T15:25:19.044Z,4.40
2023-01-22T15:27:58.824Z,4.40
2023-01-22T15:30:45.839Z,4.30
2023-01-22T15:33:16.512Z,4.40
2023-01-22T15:35:56.422Z,4.40
2023-01-22T15:38:28.361Z,4.40
2023-01-22T15:41:22.629Z,4.40
2023-01-22T15:43:51.732Z,4.70
2023-01-22T15:46:34.214Z,4.70
2023-01-22T15:49:10.207Z,4.50
2023-01-22T15:51:38.181Z,4.40
2023-01-22T15:54:20.021Z,4.20
2023-01-22T15:56:50.692Z,4.40
2023-01-22T15:59:23.934Z,4.20
2023-01-22T16:01:56.834Z,4.20
2023-01-22T16:04:30.711Z,4.00
2023-01-22T16:07:01.903Z,3.90
2023-01-22T16:09:31.153Z,4.00
2023-01-22T16:12:05.689Z,4.20
2023-01-22T16:14:33.593Z,4.20
2023-01-22T16:17:01.553Z,4.20
2023-01-22T16:19:29.385Z,4.00
2023-01-22T16:22:00.078Z,3.90
2023-01-22T16:24:28.056Z,4.10
2023-01-22T16:27:10.880Z,4.20
2023-01-22T16:29:39.942Z,4.20
2023-01-22T16:32:23.086Z,4.30
2023-01-22T16:34:51.164Z,4.10
2023-01-22T16:37:21.399Z,3.90
2023-01-22T16:45:32.331Z,4.10
2023-01-22T16:48:03.035Z,4.10
2023-01-22T16:50:33.918Z,4.30
2023-01-22T16:53:07.608Z,4.30
2023-01-22T16:55:44.587Z,4.30
2023-01-22T16:58:16.652Z,4.30
2023-01-22T17:00:47.231Z,4.20
2023-01-22T17:03:17.693Z,4.30
2023-01-22T17:05:49.744Z,4.40
2023-01-22T17:08:23.832Z,4.20
2023-01-22T17:10:51.737Z,4.00
2023-01-22T17:13:21.284Z,4.00
2023-01-22T17:16:04.325Z,4.20
2023-01-22T17:18:32.262Z,4.30
2023-01-22T17:21:06.686Z,4.20
2023-01-22T17:23:37.160Z,4.20
2023-01-22T17:26:09.821Z,4.20
2023-01-22T17:28:53.740Z,4.10
2023-01-22T17:31:22.033Z,4.10
2023-01-22T17:33:56.312Z,4.00
2023-01-22T17:36:35.037Z,3.80
2023-01-22T17:39:05.799Z,3.90
2023-01-22T17:41:42.646Z,4.00
2023-01-22T17:44:14.669Z,4.00
2023-01-22T17:46:45.353Z,4.00
2023-01-22T17:49:32.697Z,4.10
2023-01-22T17:52:00.562Z,4.30
2023-01-22T17:54:31.349Z,4.30
2023-01-22T17:57:02.098Z,4.10
2023-01-22T17:59:49.244Z,4.10
2023-01-22T18:02:23.387Z,4.10
2023-01-22T18:04:55.333Z,4.20
2023-01-22T18:07:30.620Z,4.00
2023-01-22T18:10:01.252Z,3.80
2023-01-22T18:12:31.942Z,3.80
2023-01-22T18:15:14.617Z,3.80
2023-01-22T18:17:45.574Z,3.90
2023-01-22T18:20:13.849Z,4.00
2023-01-22T18:22:41.708Z,3.90
2023-01-22T18:25:12.521Z,3.90
2023-01-22T18:27:43.396Z,4.00
2023-01-22T18:30:15.285Z,4.20
2023-01-22T18:32:43.155Z,4.40
2023-01-22T18:35:20.272Z,4.30
2023-01-22T18:37:57.629Z,4.50
2023-01-22T18:40:25.704Z,4.70
2023-01-22T18:42:53.642Z,4.50
2023-01-22T18:45:22.803Z,4.40
2023-01-22T18:48:07.202Z,4.50
2023-01-22T18:50:41.330Z,4.70
2023-01-22T18:53:17.025Z,4.50
2023-01-22T18:55:47.678Z,4.50
2023-01-22T18:58:29.573Z,4.60
2023-01-22T19:01:18.173Z,4.70
2023-01-22T19:04:00.309Z,4.60
2023-01-22T19:06:30.763Z,4.60
2023-01-22T19:09:02.460Z,4.50
2023-01-22T19:11:40.879Z,4.60
2023-01-22T19:14:10.955Z,4.90
2023-01-22T19:16:40.155Z,4.90
2023-01-22T19:19:13.384Z,4.80
2023-01-22T19:21:47.080Z,4.70
2023-01-22T19:24:24.925Z,4.60
2023-01-22T19:27:02.203Z,4.60
2023-01-22T19:29:36.298Z,4.60
2023-01-22T19:32:06.439Z,4.50
2023-01-22T19:34:53.771Z,4.40
2023-01-22T19:37:37.259Z,4.40
2023-01-22T19:40:07.243Z,4.70
2023-01-22T19:42:35.092Z,4.80
2023-01-22T19:45:02.959Z,4.70
2023-01-22T19:47:40.628Z,4.50
2023-01-22T19:50:12.075Z,4.50
2023-01-22T19:53:03.899Z,4.50
2023-01-22T19:55:40.405Z,4.60
2023-01-22T19:58:22.192Z,4.50
2023-01-22T20:00:50.382Z,4.40
2023-01-22T20:03:28.365Z,4.50
2023-01-22T20:06:06.840Z,4.60
2023-01-22T20:08:36.234Z,4.50
2023-01-22T20:11:08.430Z,4.40
2023-01-22T20:13:39.607Z,4.50
2023-01-22T20:16:15.068Z,4.50
2023-01-22T20:18:44.368Z,4.60
2023-01-22T20:21:13.072Z,4.50
2023-01-22T20:23:44.055Z,4.70
2023-01-22T20:26:13.329Z,4.90
2023-01-22T20:28:41.364Z,4.90
2023-01-22T20:34:24.054Z,4.70
2023-01-22T20:37:00.854Z,4.80
2023-01-22T20:39:31.799Z,4.80
2023-01-22T20:42:02.358Z,4.80
2023-01-22T20:44:32.064Z,4.80
2023-01-22T20:47:21.342Z,4.70
2023-01-22T20:49:56.335Z,4.80
2023-01-22T20:52:40.838Z,4.90
2023-01-22T20:55:29.803Z,4.90
2023-01-22T20:58:16.044Z,4.70
2023-01-22T21:00:52.826Z,4.70
2023-01-22T21:03:20.782Z,4.80
2023-01-22T21:05:49.927Z,5.00
2023-01-22T21:08:23.748Z,4.90
2023-01-22T21:11:06.368Z,4.70
2023-01-22T21:13:37.552Z,4.90
2023-01-22T21:16:09.128Z,5.00
2023-01-22T21:18:37.625Z,5.00
2023-01-22T21:21:19.924Z,4.80
2023-01-22T21:23:48.874Z,4.70
2023-01-22T21:26:22.742Z,4.70
2023-01-22T21:29:12.884Z,4.60
2023-01-22T21:31:48.939Z,4.50
2023-01-22T21:34:24.335Z,4.60
2023-01-22T21:36:55.099Z,4.50
2023-01-22T21:39:29.867Z,4.40
2023-01-22T21:42:14.530Z,4.10
2023-01-22T21:45:14.137Z,4.30
2023-01-22T21:47:47.919Z,4.30
2023-01-22T21:50:19.337Z,4.30
2023-01-22T21:52:55.461Z,4.30
2023-01-22T21:55:23.526Z,4.30
2023-01-22T21:58:00.475Z,4.40
2023-01-22T22:00:34.542Z,4.40
2023-01-22T22:03:27.615Z,4.20
2023-01-22T22:06:02.081Z,4.00
2023-01-22T22:08:43.342Z,4.20
2023-01-22T22:11:17.212Z,4.50
2023-01-22T22:13:45.106Z,4.50
2023-01-22T22:16:13.118Z,4.50
2023-01-22T22:18:41.496Z,4.60
2023-01-22T22:21:09.781Z,4.70
2023-01-22T22:23:38.010Z,4.70
2023-01-22T22:26:11.536Z,4.60
2023-01-22T22:28:39.442Z,4.80
2023-01-22T22:31:11.611Z,4.80
2023-01-22T22:33:40.086Z,4.60
2023-01-22T22:36:12.101Z,4.50
2023-01-22T22:38:42.999Z,4.60
2023-01-22T22:41:21.263Z,4.80
2023-01-22T22:43:53.399Z,4.70
2023-01-22T22:46:24.382Z,4.60
2023-01-22T22:48:54.084Z,4.80
2023-01-22T22:51:24.302Z,4.80
2023-01-22T22:53:54.281Z,4.70
2023-01-22T22:56:27.395Z,4.60
2023-01-22T22:59:00.735Z,4.70
2023-01-22T23:01:33.060Z,4.80
2023-01-22T23:04:04.254Z,4.70
2023-01-22T23:06:36.678Z,4.60
2023-01-22T23:09:12.173Z,4.70
2023-01-22T23:11:45.316Z,4.80
2023-01-22T23:14:15.716Z,4.60
2023-01-22T23:16:49.341Z,4.40
2023-01-22T23:19:21.629Z,4.40
2023-01-22T23:21:54.033Z,4.40
2023-01-22T23:24:22.192Z,4.30
2023-01-22T23:26:52.278Z,4.20
2023-01-22T23:29:23.937Z,4.30
2023-01-22T23:31:59.352Z,4.30
2023-01-22T23:34:27.262Z,4.10
2023-01-22T23:37:00.402Z,4.00
2023-01-22T23:39:28.344Z,3.90
2023-01-22T23:42:00.311Z,4.00
2023-01-22T23:44:31.288Z,3.90
2023-01-22T23:47:02.037Z,4.00
2023-01-22T23:52:11.693Z,4.00
2023-01-22T23:54:42.347Z,4.10
2023-01-22T23:57:29.874Z,4.10
